createdAt,value
2023-06-25T08:57:08.477Z,11.73
2023-06-25T08:59:44.094Z,11.60
2023-06-25T09:02:14.100Z,10.63
2023-06-25T09:04:44.520Z,10.25
2023-06-25T09:07:17.434Z,9.82
2023-06-25T09:09:47.427Z,9.68
2023-06-25T09:12:19.921Z,7.70
2023-06-25T09:14:50.869Z,10.07
2023-06-25T09:17:24.182Z,11.02
2023-06-25T09:19:54.316Z,10.50
2023-06-25T09:25:08.875Z,8.57
2023-06-25T09:27:44.971Z,9.00
2023-06-25T09:30:27.419Z,12.38
2023-06-25T09:32:58.690Z,9.77
2023-06-25T09:39:04.446Z,8.45
2023-06-25T09:41:37.019Z,9.95
2023-06-25T09:44:10.261Z,7.53
2023-06-25T09:46:53.144Z,7.47
2023-06-25T09:56:52.458Z,9.90
2023-06-25T10:02:55.225Z,8.55
2023-06-25T10:05:25.782Z,7.45
2023-06-25T10:08:31.440Z,7.97
2023-06-25T10:11:23.667Z,8.55
2023-06-25T10:14:21.308Z,9.00
2023-06-25T10:23:56.544Z,7.50
2023-06-25T10:27:09.643Z,6.60
2023-06-25T10:30:40.967Z,10.35
2023-06-25T10:36:28.629Z,7.65
2023-06-25T10:39:01.874Z,9.20
2023-06-25T10:41:32.547Z,13.10
2023-06-25T10:44:02.882Z,7.30
2023-06-25T10:46:36.112Z,8.55
2023-06-25T10:49:06.871Z,8.40
2023-06-25T10:51:38.302Z,9.43
2023-06-25T10:54:11.714Z,9.23
2023-06-25T10:56:41.589Z,8.43
2023-06-25T10:59:11.531Z,7.57
2023-06-25T11:04:17.588Z,7.60
2023-06-25T11:06:47.604Z,7.57
2023-06-25T11:09:20.848Z,7.03
2023-06-25T11:11:55.664Z,9.20
2023-06-25T11:14:25.497Z,8.95
2023-06-25T11:16:55.398Z,7.78
2023-06-25T11:19:25.379Z,8.60
2023-06-25T11:24:28.747Z,8.05
2023-06-25T11:27:02.067Z,8.88
2023-06-25T11:29:39.262Z,8.18
2023-06-25T11:32:11.593Z,8.80
2023-06-25T11:34:47.617Z,8.80
2023-06-25T11:37:19.904Z,8.55
2023-06-25T11:39:53.942Z,7.93
2023-06-25T11:42:25.445Z,11.80
2023-06-25T11:45:02.671Z,7.13
2023-06-25T11:47:32.792Z,10.25
2023-06-25T11:50:05.903Z,8.80
2023-06-25T11:52:37.419Z,9.70
2023-06-25T11:55:11.262Z,9.57
2023-06-25T11:57:41.298Z,8.52
2023-06-25T12:00:11.998Z,6.75
2023-06-25T12:02:49.741Z,7.70
2023-06-25T12:05:20.875Z,8.02
2023-06-25T12:07:50.963Z,7.70
2023-06-25T12:10:23.473Z,8.75
2023-06-25T12:12:53.982Z,12.80
2023-06-25T12:15:24.029Z,7.90
2023-06-25T12:17:53.931Z,9.75
2023-06-25T12:20:24.010Z,7.63
2023-06-25T12:22:54.126Z,8.80
2023-06-25T12:25:28.143Z,10.18
2023-06-25T12:27:58.123Z,9.05
2023-06-25T12:32:57.841Z,7.38
2023-06-25T12:35:28.994Z,8.48
2023-06-25T12:37:58.901Z,8.38
2023-06-25T12:43:01.335Z,7.65
2023-06-25T12:45:31.308Z,8.38
2023-06-25T12:50:30.856Z,12.30
2023-06-25T12:55:33.204Z,8.48
2023-06-25T12:58:03.180Z,9.05
2023-06-25T13:03:23.025Z,8.07
2023-06-25T13:05:53.072Z,7.72
2023-06-25T13:10:57.818Z,7.25
2023-06-25T13:13:27.855Z,9.55
2023-06-25T13:15:57.810Z,7.82
2023-06-25T13:20:58.038Z,7.50
2023-06-25T13:26:00.353Z,7.95
2023-06-25T13:28:30.308Z,10.55
2023-06-25T13:33:30.478Z,7.63
2023-06-25T13:36:00.590Z,8.05
2023-06-25T13:38:30.596Z,7.00
2023-06-25T13:43:32.884Z,8.20
2023-06-25T13:46:03.006Z,7.10
2023-06-25T13:48:33.047Z,7.95
2023-06-25T13:51:03.820Z,10.57
2023-06-25T13:53:33.929Z,7.97
2023-06-25T13:56:06.626Z,8.20
2023-06-25T13:58:36.567Z,7.05
2023-06-25T14:03:36.470Z,7.00
2023-06-25T14:06:06.576Z,7.70
2023-06-25T14:08:36.637Z,7.40
2023-06-25T14:11:09.388Z,8.57
2023-06-25T14:13:39.511Z,8.32
2023-06-25T14:16:15.529Z,7.97
2023-06-25T14:18:46.273Z,8.80
2023-06-25T14:23:49.970Z,11.00
2023-06-25T14:26:22.577Z,7.28
2023-06-25T14:29:06.206Z,7.88
2023-06-25T14:31:40.217Z,8.00
2023-06-25T14:34:10.278Z,6.50
2023-06-25T14:36:40.247Z,8.20
2023-06-25T14:41:42.494Z,10.77
2023-06-25T14:44:12.736Z,7.13
2023-06-25T14:46:42.719Z,8.68
2023-06-25T14:49:12.758Z,7.85
2023-06-25T14:54:12.604Z,7.90
2023-06-25T14:56:45.133Z,10.68
2023-06-25T14:59:15.024Z,8.65
2023-06-25T15:04:14.799Z,10.25
2023-06-25T15:06:45.937Z,7.10
2023-06-25T15:09:16.224Z,7.15
2023-06-25T15:11:48.869Z,8.65
2023-06-25T15:14:21.482Z,8.10
2023-06-25T15:16:51.574Z,7.57
2023-06-25T15:19:21.627Z,6.80
2023-06-25T15:21:51.474Z,6.07
2023-06-25T15:26:53.866Z,8.00
2023-06-25T15:29:23.979Z,7.25
2023-06-25T15:31:54.031Z,8.20
2023-06-25T15:34:24.027Z,10.38
2023-06-25T15:39:23.647Z,6.75
2023-06-25T15:44:26.017Z,8.90
2023-06-25T15:46:56.014Z,6.75
2023-06-25T15:51:55.403Z,7.07
2023-06-25T15:54:26.677Z,7.32
2023-06-25T15:56:59.732Z,7.15
2023-06-25T15:59:29.732Z,7.25
2023-06-25T16:01:59.618Z,8.07
2023-06-25T16:04:31.418Z,7.18
2023-06-25T16:07:03.060Z,8.13
2023-06-25T16:09:33.220Z,8.18
2023-06-25T16:12:06.170Z,7.18
2023-06-25T16:14:36.249Z,7.82
2023-06-25T16:17:07.464Z,7.15
2023-06-25T16:22:11.762Z,6.82
2023-06-25T16:27:14.024Z,7.35
2023-06-25T16:29:44.174Z,7.68
2023-06-25T16:32:16.294Z,7.07
2023-06-25T16:34:46.410Z,6.88
2023-06-25T16:37:16.414Z,6.95
2023-06-25T16:42:18.828Z,8.68
2023-06-25T16:44:49.385Z,8.35
2023-06-25T16:47:19.393Z,8.63
2023-06-25T16:49:49.774Z,8.20
2023-06-25T16:52:19.864Z,7.00
2023-06-25T16:54:49.990Z,7.07
2023-06-25T16:57:22.741Z,7.97
2023-06-25T16:59:52.796Z,10.48
2023-06-25T17:02:22.924Z,7.80
2023-06-25T17:04:53.099Z,7.43
2023-06-25T17:07:23.614Z,9.20
2023-06-25T17:09:53.688Z,7.65
2023-06-25T17:12:26.261Z,7.47
2023-06-25T17:14:56.383Z,9.57
2023-06-25T17:17:26.482Z,8.23
2023-06-25T17:19:56.423Z,10.52
2023-06-25T17:22:26.446Z,8.07
2023-06-25T17:27:28.744Z,9.63
2023-06-25T17:29:58.644Z,12.05
2023-06-25T17:32:28.716Z,9.80
2023-06-25T17:34:58.750Z,7.28
2023-06-25T17:37:28.780Z,11.35
2023-06-25T17:42:31.113Z,8.32
2023-06-25T17:45:01.223Z,7.47
2023-06-25T17:47:31.776Z,7.35
2023-06-25T17:50:02.117Z,7.05
2023-06-25T17:52:32.177Z,6.75
2023-06-25T17:55:02.325Z,7.30
2023-06-25T17:57:35.209Z,7.10
2023-06-25T18:00:05.792Z,8.85
2023-06-25T18:02:44.642Z,7.50
2023-06-25T18:05:15.097Z,6.90
2023-06-25T18:07:45.153Z,6.22
2023-06-25T18:12:47.525Z,5.93
2023-06-25T18:15:18.836Z,8.80
2023-06-25T18:17:48.955Z,8.60
2023-06-25T18:22:52.189Z,6.75
2023-06-25T18:25:23.039Z,7.35
2023-06-25T18:27:55.766Z,7.53
2023-06-25T18:30:25.877Z,8.98
2023-06-25T18:32:56.019Z,9.93
2023-06-25T18:35:26.164Z,8.82
2023-06-25T18:37:56.128Z,9.40
2023-06-25T18:40:27.217Z,7.93
2023-06-25T18:42:59.906Z,11.57
2023-06-25T18:45:29.906Z,7.38
2023-06-25T18:48:00.107Z,9.27
2023-06-25T18:50:30.110Z,7.85
2023-06-25T18:53:00.118Z,7.70
2023-06-25T18:58:02.402Z,7.63
2023-06-25T19:00:32.511Z,9.73
2023-06-25T19:03:02.833Z,8.23
2023-06-25T19:05:32.943Z,9.70
2023-06-25T19:08:02.900Z,10.52
2023-06-25T19:10:32.932Z,8.77
2023-06-25T19:13:05.814Z,9.82
2023-06-25T19:15:35.842Z,9.50
2023-06-25T19:18:06.927Z,11.63
2023-06-25T19:20:37.200Z,9.02
2023-06-25T19:25:41.714Z,7.90
2023-06-25T19:28:14.238Z,8.57
2023-06-25T19:30:44.825Z,8.65
2023-06-25T19:33:15.145Z,8.35
2023-06-25T19:35:45.192Z,9.93
2023-06-25T19:40:48.363Z,8.65
2023-06-25T19:43:21.018Z,9.10
2023-06-25T19:45:52.046Z,8.25
2023-06-25T19:48:22.142Z,10.05
2023-06-25T19:50:52.740Z,9.68
2023-06-25T19:53:22.898Z,8.73
2023-06-25T19:58:25.146Z,13.40
2023-06-25T20:00:55.514Z,11.18
2023-06-25T20:03:25.601Z,9.55
2023-06-25T20:05:55.504Z,12.10
2023-06-25T20:08:25.453Z,9.77
2023-06-25T20:10:55.554Z,10.05
2023-06-25T20:13:28.165Z,8.95
2023-06-25T20:15:58.216Z,8.88
2023-06-25T20:18:28.386Z,7.85
2023-06-25T20:23:29.705Z,9.68
2023-06-25T20:26:00.107Z,10.02
2023-06-25T20:31:02.453Z,12.98
2023-06-25T20:33:32.333Z,11.95
2023-06-25T20:36:02.336Z,11.23
2023-06-25T20:38:32.320Z,11.60
2023-06-25T20:41:12.621Z,9.80
2023-06-25T20:43:55.488Z,11.15
2023-06-25T20:46:26.025Z,10.75
2023-06-25T20:48:56.193Z,10.77
2023-06-25T20:53:56.763Z,11.43
2023-06-25T20:56:26.635Z,8.82
2023-06-25T20:58:59.757Z,10.60
2023-06-25T21:01:29.621Z,10.23
2023-06-25T21:03:59.443Z,10.02
2023-06-25T21:06:29.391Z,9.13
2023-06-25T21:08:59.499Z,14.63
2023-06-25T21:11:29.297Z,13.07
2023-06-25T21:14:01.740Z,12.13
2023-06-25T21:16:31.640Z,15.98
2023-06-25T21:19:01.501Z,11.60
2023-06-25T21:21:31.382Z,12.23
2023-06-25T21:35:06.016Z,12.00
2023-06-25T21:37:36.318Z,13.52
2023-06-25T21:43:11.153Z,10.93
2023-06-25T21:46:14.711Z,9.98
2023-06-25T21:48:53.677Z,9.40
2023-06-25T21:54:12.646Z,13.40
2023-06-25T21:57:03.845Z,13.13
2023-06-25T22:00:03.799Z,12.73
2023-06-25T22:02:46.077Z,11.10
2023-06-25T22:05:19.326Z,12.90
2023-06-25T22:08:44.576Z,13.68
2023-06-25T22:11:35.165Z,14.45
2023-06-25T22:14:21.346Z,14.85
2023-06-25T22:17:08.687Z,15.00
2023-06-25T22:19:40.864Z,14.65
2023-06-25T22:22:20.280Z,12.55
2023-06-25T22:24:53.010Z,10.90
2023-06-25T22:27:22.855Z,12.38
2023-06-25T22:29:53.405Z,12.10
2023-06-25T22:32:23.256Z,15.90
2023-06-25T22:34:53.216Z,16.20
2023-06-25T22:37:23.142Z,14.70
2023-06-25T22:39:56.100Z,13.48
2023-06-25T22:42:26.150Z,15.30
2023-06-25T22:44:55.996Z,11.98
2023-06-25T22:47:25.965Z,13.07
